Time;durP1;ratioP1;P1;durP2;ratioP2;P2;SDS_P1;SDS_P2;PMS_P1;PMS_P2;Temp;Humidity;BMP_temperature;BMP_pressure;BME280_temperature;BME280_humidity;BME280_pressure;Samples;Min_cycle;Max_cycle;Signal;HPM_P1;HPM_P2
2022/08/21 06:02:30;;;;;;;;;2.00;2.00;;;;;-147.14;100.00;58812.66;5256268;22;8854;-73
2022/08/21 06:04:56;;;;;;;;;2.00;2.00;;;;;-147.14;100.00;58812.66;5063523;28;8895;-74
2022/08/21 06:07:22;;;;;;;;;3.00;3.00;;;;;-147.14;100.00;58812.66;5068178;28;8852;-72
2022/08/21 06:09:47;;;;;;;;;1.33;1.33;;;;;-147.14;100.00;58812.66;5068256;28;35209;-72
2022/08/21 06:12:12;;;;;;;;;1.67;1.67;;;;;-147.14;100.00;58812.66;5052844;28;32342;-72
2022/08/21 06:14:39;;;;;;;;;1.00;1.00;;;;;-147.14;100.00;58812.66;5070667;28;8931;-72
2022/08/21 06:17:07;;;;;;;;;2.00;2.00;;;;;-147.14;100.00;58812.66;5068980;28;9723;-72
2022/08/21 06:19:33;;;;;;;;;4.00;2.25;;;;;-147.14;100.00;58812.66;5069005;28;8816;-72
2022/08/21 06:21:59;;;;;;;;;3.67;2.00;;;;;-147.14;100.00;58812.66;5060274;28;9058;-72
2022/08/21 06:24:24;;;;;;;;;3.33;3.00;;;;;-147.14;100.00;58812.66;5073063;28;8793;-72
2022/08/21 06:26:50;;;;;;;;;4.00;2.00;;;;;-147.14;100.00;58812.66;5067121;28;8852;-72
2022/08/21 06:29:19;;;;;;;;;3.00;3.00;;;;;-147.14;100.00;58812.66;5072810;28;34585;-72
2022/08/21 06:31:45;;;;;;;;;3.00;3.00;;;;;-147.14;100.00;58812.66;5066667;28;8847;-73
2022/08/21 06:34:10;;;;;;;;;3.33;3.00;;;;;-147.14;100.00;58812.66;5070674;28;8805;-72
2022/08/21 06:36:36;;;;;;;;;3.33;2.00;;;;;-147.14;100.00;58812.66;5074930;28;8833;-74
2022/08/21 06:39:02;;;;;;;;;1.33;1.33;;;;;-147.14;100.00;58812.66;5069741;28;8860;-74
2022/08/21 06:41:27;;;;;;;;;4.00;4.00;;;;;-147.14;100.00;58812.66;5069361;28;8852;-74
2022/08/21 06:43:54;;;;;;;;;7.33;6.00;;;;;-147.14;100.00;58812.66;5064814;28;8808;-74
2022/08/21 06:46:19;;;;;;;;;5.00;3.25;;;;;-147.14;100.00;58812.66;5059201;28;8832;-76
2022/08/21 06:48:45;;;;;;;;;3.00;3.00;;;;;-147.14;100.00;58812.66;5057263;28;9121;-74
2022/08/21 06:51:10;;;;;;;;;3.33;3.33;;;;;-147.14;100.00;58812.66;5074093;28;32416;-73
2022/08/21 06:53:35;;;;;;;;;3.00;3.00;;;;;-147.14;100.00;58812.66;5076998;28;8907;-73
2022/08/21 06:56:01;;;;;;;;;2.33;2.33;;;;;-147.14;100.00;58812.66;5070638;28;22390;-73
2022/08/21 06:58:27;;;;;;;;;3.67;3.67;;;;;-147.14;100.00;58812.66;5072098;28;8858;-73
2022/08/21 07:00:52;;;;;;;;;4.00;4.00;;;;;-147.14;100.00;58812.66;5046924;28;8893;-73
2022/08/21 07:03:23;;;;;;;;;2.50;2.50;;;;;-147.14;100.00;58812.66;5076766;28;8813;-72
2022/08/21 07:05:48;;;;;;;;;2.50;2.00;;;;;-147.14;100.00;58812.66;5072864;28;8780;-72
2022/08/21 07:08:14;;;;;;;;;6.75;6.75;;;;;-147.14;100.00;58812.66;5070861;28;8841;-71
2022/08/21 07:10:39;;;;;;;;;2.25;2.25;;;;;-147.14;100.00;58812.66;5075799;28;8833;-71
2022/08/21 07:13:04;;;;;;;;;4.00;1.00;;;;;-147.14;100.00;58812.66;5072947;28;31106;-71
2022/08/21 07:15:30;;;;;;;;;2.50;2.25;;;;;-147.14;100.00;58812.66;5062131;28;8928;-71
2022/08/21 07:17:56;;;;;;;;;3.25;3.00;;;;;-147.14;100.00;58812.66;5067388;28;8820;-72
2022/08/21 07:20:22;;;;;;;;;4.60;4.60;;;;;-147.14;100.00;58812.66;5074916;28;8821;-71
2022/08/21 07:22:47;;;;;;;;;3.00;3.00;;;;;-147.14;100.00;58812.66;5073638;28;31376;-71
2022/08/21 07:25:13;;;;;;;;;1.75;1.75;;;;;-147.14;100.00;58812.66;5072817;28;17152;-71
2022/08/21 07:27:38;;;;;;;;;6.00;2.00;;;;;-147.14;100.00;58812.66;5070997;28;8825;-70
2022/08/21 07:30:05;;;;;;;;;5.25;5.25;;;;;-147.14;100.00;58812.66;5071548;28;8817;-71
2022/08/21 07:32:30;;;;;;;;;3.00;3.00;;;;;-147.14;100.00;58812.66;5071686;28;8936;-72
2022/08/21 07:34:56;;;;;;;;;2.75;2.75;;;;;-147.14;100.00;58812.66;5067610;28;34629;-71
2022/08/21 07:37:21;;;;;;;;;6.33;5.00;;;;;-147.14;100.00;58812.66;5073067;28;8845;-71
2022/08/21 07:39:48;;;;;;;;;4.00;3.00;;;;;-147.14;100.00;58812.66;5072342;28;9633;-61
2022/08/21 07:42:14;;;;;;;;;6.20;4.20;;;;;-147.14;100.00;58812.66;5074859;28;8801;-62
2022/08/21 07:44:39;;;;;;;;;3.00;3.00;;;;;-147.14;100.00;58812.66;5074833;28;8848;-63
2022/08/21 07:47:05;;;;;;;;;4.50;4.50;;;;;-147.14;100.00;58812.66;5075831;28;30251;-63
2022/08/21 07:49:30;;;;;;;;;4.25;4.25;;;;;-147.14;100.00;58812.66;5070318;28;21297;-62
2022/08/21 07:51:56;;;;;;;;;4.00;4.00;;;;;-147.14;100.00;58812.66;5067818;28;8870;-62
2022/08/21 07:54:22;;;;;;;;;3.80;3.80;;;;;-147.14;100.00;58812.66;5073178;28;8845;-62
2022/08/21 07:56:47;;;;;;;;;3.75;3.75;;;;;-147.14;100.00;58812.66;5065776;28;30599;-62
2022/08/21 07:59:12;;;;;;;;;3.00;2.50;;;;;-147.14;100.00;58812.66;5068454;28;33500;-63
2022/08/21 08:01:38;;;;;;;;;5.75;3.00;;;;;-147.14;100.00;58812.66;5064110;28;31604;-64
2022/08/21 08:04:03;;;;;;;;;4.25;4.25;;;;;-147.14;100.00;58812.66;5070218;28;8849;-63
2022/08/21 08:06:30;;;;;;;;;5.00;5.00;;;;;-147.14;100.00;58812.66;5071786;28;8890;-63
2022/08/21 08:08:55;;;;;;;;;3.00;3.00;;;;;-147.14;100.00;58812.66;5067648;28;9735;-63
2022/08/21 08:11:20;;;;;;;;;2.75;2.75;;;;;-147.14;100.00;58812.66;5069370;28;10013;-63
2022/08/21 08:13:48;;;;;;;;;5.00;4.00;;;;;-147.14;100.00;58812.66;5070432;28;33916;-63
2022/08/21 08:16:14;;;;;;;;;2.00;2.00;;;;;-147.14;100.00;58812.66;5067634;28;8847;-63
2022/08/21 08:18:40;;;;;;;;;5.00;4.25;;;;;-147.14;100.00;58812.66;5072756;28;8801;-62
2022/08/21 08:21:05;;;;;;;;;4.00;3.60;;;;;-147.14;100.00;58812.66;5075120;28;8816;-62
2022/08/21 08:23:32;;;;;;;;;5.50;4.25;;;;;-147.14;100.00;58812.66;5074097;28;8821;-62
2022/08/21 08:25:58;;;;;;;;;3.20;3.20;;;;;-147.14;100.00;58812.66;5072247;28;8813;-62
2022/08/21 08:28:24;;;;;;;;;6.00;6.00;;;;;-147.14;100.00;58812.66;5071902;28;8840;-62
2022/08/21 08:30:49;;;;;;;;;3.25;2.00;;;;;-147.14;100.00;58812.66;5071047;28;8833;-62
2022/08/21 08:33:16;;;;;;;;;4.50;3.00;;;;;-147.14;100.00;58812.66;5050707;28;34902;-62
2022/08/21 08:35:46;;;;;;;;;6.75;4.50;;;;;-147.14;100.00;58812.66;5060103;28;8812;-62
2022/08/21 08:38:11;;;;;;;;;3.40;3.40;;;;;-147.14;100.00;58812.66;5068769;28;8822;-62
2022/08/21 08:40:44;;;;;;;;;4.25;4.25;;;;;-147.14;100.00;58812.66;5066085;28;8915;-63
2022/08/21 08:43:11;;;;;;;;;3.00;3.00;;;;;-147.14;100.00;58812.66;5057412;28;9698;-62
2022/08/21 08:45:39;;;;;;;;;4.00;4.00;;;;;-147.14;100.00;58812.66;5051197;28;8737;-63
2022/08/21 08:48:08;;;;;;;;;2.00;1.20;;;;;-147.14;100.00;58812.66;5049847;28;8798;-62
2022/08/21 08:50:45;;;;;;;;;3.75;3.75;;;;;-147.14;100.00;58812.66;5067990;28;8825;-63
2022/08/21 08:53:24;;;;;;;;;1.80;1.80;;;;;-147.14;100.00;58812.66;5047707;28;8895;-63
2022/08/21 08:55:51;;;;;;;;;3.20;3.00;;;;;-147.14;100.00;58812.66;5067356;28;8801;-62
2022/08/21 08:58:25;;;;;;;;;3.00;2.40;;;;;-147.14;100.00;58812.66;5069079;28;8817;-62
2022/08/21 09:00:52;;;;;;;;;4.00;3.00;;;;;-147.14;100.00;58812.66;5054149;28;8793;-62
2022/08/21 09:03:18;;;;;;;;;1.80;1.80;;;;;-147.14;100.00;58812.66;5053393;28;8847;-62
2022/08/21 09:05:54;;;;;;;;;2.75;1.75;;;;;-147.14;100.00;58812.66;5068015;28;8798;-62
2022/08/21 09:08:28;;;;;;;;;3.00;3.00;;;;;-147.14;100.00;58812.66;5066614;28;8782;-62
2022/08/21 09:11:04;;;;;;;;;3.50;3.50;;;;;-147.14;100.00;58812.66;5064218;28;8828;-62
2022/08/21 09:13:43;;;;;;;;;2.80;2.80;;;;;-147.14;100.00;58812.66;5071073;28;8825;-62
2022/08/21 09:16:11;;;;;;;;;2.80;1.00;;;;;-147.14;100.00;58812.66;5049781;28;8829;-64
2022/08/21 09:18:55;;;;;;;;;1.50;1.50;;;;;-147.14;100.00;58812.66;5073889;28;9826;-63
2022/08/21 09:21:51;;;;;;;;;2.00;2.00;;;;;-147.14;100.00;58812.66;5056887;28;8793;-63
2022/08/21 09:24:32;;;;;;;;;4.60;3.00;;;;;-147.14;100.00;58812.66;5066770;28;8797;-63
2022/08/21 09:26:58;;;;;;;;;5.60;3.20;;;;;-147.14;100.00;58812.66;5073296;28;8829;-62
2022/08/21 09:29:25;;;;;;;;;3.25;1.00;;;;;-147.14;100.00;58812.66;5074134;28;8848;-62
2022/08/21 09:31:51;;;;;;;;;3.25;2.25;;;;;-147.14;100.00;58812.66;5055328;28;8832;-63
2022/08/21 09:34:25;;;;;;;;;2.00;2.00;;;;;-147.14;100.00;58812.66;5064265;28;8816;-63
2022/08/21 09:36:51;;;;;;;;;2.80;2.40;;;;;-147.14;100.00;58812.66;5073119;28;9677;-63
2022/08/21 09:39:26;;;;;;;;;4.25;2.75;;;;;-147.14;100.00;58812.66;5072189;28;35919;-63
2022/08/21 09:42:00;;;;;;;;;0.80;0.80;;;;;-147.14;100.00;58812.66;5068218;28;8832;-63
2022/08/21 09:44:29;;;;;;;;;3.20;1.40;;;;;-147.14;100.00;58812.66;5070439;28;8793;-63
2022/08/21 09:46:55;;;;;;;;;2.00;2.00;;;;;-147.14;100.00;58812.66;5071330;28;8806;-63
2022/08/21 09:49:35;;;;;;;;;1.00;1.00;;;;;-147.14;100.00;58812.66;5069893;28;8836;-63
2022/08/21 09:52:01;;;;;;;;;2.20;2.20;;;;;-147.14;100.00;58812.66;5073056;28;8789;-63
2022/08/21 09:54:33;;;;;;;;;2.00;2.00;;;;;-147.14;100.00;58812.66;5068593;28;8761;-63
2022/08/21 09:59:51;;;;;;;;;1.80;1.00;;;;;-147.14;100.00;58812.66;5071575;28;8742;-63
2022/08/21 10:02:26;;;;;;;;;4.00;1.50;;;;;-147.14;100.00;58812.66;5071481;28;30793;-63
2022/08/21 10:04:57;;;;;;;;;3.60;1.60;;;;;-147.14;100.00;58812.66;5071320;28;8942;-63
2022/08/21 10:07:24;;;;;;;;;1.20;0.60;;;;;-147.14;100.00;58812.66;5071932;28;8829;-62
2022/08/21 10:10:13;;;;;;;;;1.00;1.00;;;;;-147.14;100.00;58812.66;5053837;28;8848;-63
2022/08/21 10:12:38;;;;;;;;;2.00;2.00;;;;;-147.14;100.00;58812.66;5071483;28;8806;-63
2022/08/21 10:15:09;;;;;;;;;1.50;0.25;;;;;-147.14;100.00;58812.66;5051355;28;8824;-63
2022/08/21 10:18:20;;;;;;;;;1.20;1.20;;;;;-147.14;100.00;58812.66;5065308;28;8902;-62
2022/08/21 10:21:10;;;;;;;;;5.60;2.60;;;;;-147.14;100.00;58812.66;5037927;28;8825;-63
2022/08/21 10:23:47;;;;;;;;;1.00;1.00;;;;;-147.14;100.00;58812.66;5062547;28;8948;-63
2022/08/21 10:26:43;;;;;;;;;0.60;0.60;;;;;-147.14;100.00;58812.66;5069511;28;8765;-63
2022/08/21 10:29:28;;;;;;;;;1.00;1.00;;;;;-147.14;100.00;58812.66;5068841;28;8886;-63
2022/08/21 10:31:59;;;;;;;;;4.60;1.20;;;;;-147.14;100.00;58812.66;5049698;28;8921;-62
2022/08/21 10:34:35;;;;;;;;;0.60;0.60;;;;;-147.14;100.00;58812.66;5068779;28;8764;-62
2022/08/21 10:37:30;;;;;;;;;2.00;2.00;;;;;-147.14;100.00;58812.66;5068569;28;8801;-63
2022/08/21 10:40:17;;;;;;;;;1.20;1.20;;;;;-147.14;100.00;58812.66;5057133;28;8903;-63
2022/08/21 10:43:09;;;;;;;;;0.40;0.40;;;;;-147.14;100.00;58812.66;5069200;28;8869;-62
2022/08/21 10:46:07;;;;;;;;;0.80;0.80;;;;;-147.14;100.00;58812.66;5050282;28;8809;-62
2022/08/21 10:48:39;;;;;;;;;0.80;0.00;;;;;-147.14;100.00;58812.66;5054502;28;8803;-63
2022/08/21 10:51:06;;;;;;;;;0.00;0.00;;;;;-147.14;100.00;58812.66;5063496;28;8825;-62
2022/08/21 10:53:47;;;;;;;;;1.80;1.80;;;;;-147.14;100.00;58812.66;5058263;28;8802;-62
2022/08/21 10:56:34;;;;;;;;;2.60;1.40;;;;;-147.14;100.00;58812.66;5071349;28;8908;-63
2022/08/21 10:59:38;;;;;;;;;2.00;1.20;;;;;-147.14;100.00;58812.66;5051964;28;8805;-63
2022/08/21 11:02:15;;;;;;;;;2.40;2.00;;;;;-147.14;100.00;58812.66;5018681;28;8813;-63
2022/08/21 11:04:53;;;;;;;;;4.20;2.40;;;;;-147.14;100.00;58812.66;5072222;28;8758;-62
2022/08/21 11:07:30;;;;;;;;;2.20;2.20;;;;;-147.14;100.00;58812.66;5050956;28;8734;-63
2022/08/21 11:09:58;;;;;;;;;1.60;1.60;;;;;-147.14;100.00;58812.66;5048373;28;8782;-63
2022/08/21 11:12:41;;;;;;;;;1.20;1.00;;;;;-147.14;100.00;58812.66;5048790;28;8840;-64
2022/08/21 11:15:28;;;;;;;;;2.00;0.80;;;;;-147.14;100.00;58812.66;5056849;28;8824;-63
2022/08/21 11:18:04;;;;;;;;;1.20;1.20;;;;;-147.14;100.00;58812.66;5070604;28;8879;-64
2022/08/21 11:20:51;;;;;;;;;0.20;0.20;;;;;-147.14;100.00;58812.66;5074451;28;8813;-63
2022/08/21 11:23:23;;;;;;;;;2.00;2.00;;;;;-147.14;100.00;58812.66;5067818;28;8738;-63
2022/08/21 11:26:15;;;;;;;;;3.60;2.00;;;;;-147.14;100.00;58812.66;5051963;28;8821;-63
2022/08/21 11:28:48;;;;;;;;;4.20;3.00;;;;;-147.14;100.00;58812.66;5063345;28;8796;-63
2022/08/21 11:31:39;;;;;;;;;0.00;0.00;;;;;-147.14;100.00;58812.66;5051249;28;8841;-63
2022/08/21 11:34:36;;;;;;;;;1.40;1.40;;;;;-147.14;100.00;58812.66;5068287;28;8809;-63
2022/08/21 11:37:30;;;;;;;;;0.80;0.80;;;;;-147.14;100.00;58812.66;5053762;28;8789;-63
2022/08/21 11:40:20;;;;;;;;;1.20;1.20;;;;;-147.14;100.00;58812.66;5023143;28;8804;-63
2022/08/21 11:43:16;;;;;;;;;1.20;1.20;;;;;-147.14;100.00;58812.66;5065137;28;8800;-63
2022/08/21 11:45:49;;;;;;;;;0.40;0.40;;;;;-147.14;100.00;58812.66;5059484;28;8804;-64
2022/08/21 11:48:48;;;;;;;;;1.20;1.20;;;;;-147.14;100.00;58812.66;5068551;28;8812;-63
2022/08/21 11:51:20;;;;;;;;;1.20;0.80;;;;;-147.14;100.00;58812.66;5047360;28;8816;-63
2022/08/21 11:53:54;;;;;;;;;0.80;0.80;;;;;-147.14;100.00;58812.66;5049925;28;8797;-63
2022/08/21 11:56:37;;;;;;;;;1.00;0.20;;;;;-147.14;100.00;58812.66;5044000;28;9800;-63
2022/08/21 11:59:07;;;;;;;;;1.20;0.20;;;;;-147.14;100.00;58812.66;5067010;28;8804;-63
2022/08/21 12:01:36;;;;;;;;;2.80;2.80;;;;;-147.14;100.00;58812.66;5075038;28;8810;-63
2022/08/21 12:04:10;;;;;;;;;0.40;0.00;;;;;-147.14;100.00;58812.66;5075753;28;8837;-63
2022/08/21 12:06:38;;;;;;;;;0.20;0.20;;;;;-147.14;100.00;58812.66;5059088;28;8800;-64
2022/08/21 12:09:07;;;;;;;;;0.40;0.20;;;;;-147.14;100.00;58812.66;5070570;28;8899;-63
2022/08/21 12:11:48;;;;;;;;;0.40;0.20;;;;;-147.14;100.00;58812.66;5056684;28;8844;-63
2022/08/21 12:14:17;;;;;;;;;0.20;0.20;;;;;-147.14;100.00;58812.66;5070947;28;8849;-64
2022/08/21 12:16:46;;;;;;;;;1.40;0.40;;;;;-147.14;100.00;58812.66;5065062;28;8844;-64
2022/08/21 12:19:29;;;;;;;;;1.20;1.20;;;;;-147.14;100.00;58812.66;5065139;28;8812;-63
2022/08/21 12:22:00;;;;;;;;;2.60;1.00;;;;;-147.14;100.00;58812.66;5072938;28;8863;-64
2022/08/21 12:24:26;;;;;;;;;2.60;2.60;;;;;-147.14;100.00;58812.66;5062270;28;8830;-63
2022/08/21 12:26:53;;;;;;;;;0.00;0.00;;;;;-147.14;100.00;58812.66;5065249;28;8817;-63
2022/08/21 12:29:31;;;;;;;;;0.60;0.60;;;;;-147.14;100.00;58812.66;5055038;28;8822;-63
2022/08/21 12:32:19;;;;;;;;;0.00;0.00;;;;;-147.14;100.00;58812.66;5071364;28;8782;-63
2022/08/21 12:35:06;;;;;;;;;0.40;0.40;;;;;-147.14;100.00;58812.66;5063899;28;8879;-63
2022/08/21 12:37:41;;;;;;;;;0.40;0.40;;;;;-147.14;100.00;58812.66;5048116;28;8812;-64
2022/08/21 12:40:20;;;;;;;;;0.00;0.00;;;;;-147.14;100.00;58812.66;5061913;28;9759;-64
2022/08/21 12:42:49;;;;;;;;;0.00;0.00;;;;;-147.14;100.00;58812.66;5051429;28;8818;-64
2022/08/21 12:45:33;;;;;;;;;0.20;0.20;;;;;-147.14;100.00;58812.66;5054762;28;8903;-63
2022/08/21 12:48:06;;;;;;;;;0.00;0.00;;;;;-147.14;100.00;58812.66;5064965;28;9753;-63
2022/08/21 12:50:38;;;;;;;;;0.00;0.00;;;;;-147.14;100.00;58812.66;5040455;28;8895;-63
2022/08/21 12:53:07;;;;;;;;;0.80;0.80;;;;;-147.14;100.00;58812.66;5070927;28;8824;-63
2022/08/21 12:55:33;;;;;;;;;0.00;0.00;;;;;-147.14;100.00;58812.66;5051270;28;8834;-63
2022/08/21 12:57:59;;;;;;;;;0.00;0.00;;;;;-147.14;100.00;58812.66;5071574;28;8769;-63
2022/08/21 13:00:27;;;;;;;;;0.00;0.00;;;;;-147.14;100.00;58812.66;5063229;28;31756;-63
2022/08/21 13:02:54;;;;;;;;;0.20;0.20;;;;;-147.14;100.00;58812.66;5068300;28;8808;-63
2022/08/21 13:05:34;;;;;;;;;0.00;0.00;;;;;-147.14;100.00;58812.66;5069140;28;8742;-63
2022/08/21 13:08:04;;;;;;;;;0.80;0.80;;;;;-147.14;100.00;58812.66;5065401;28;8810;-63
2022/08/21 13:10:32;;;;;;;;;0.00;0.00;;;;;-147.14;100.00;58812.66;5069690;28;8841;-63
2022/08/21 13:13:00;;;;;;;;;0.00;0.00;;;;;-147.14;100.00;58812.66;5056738;28;8905;-63
2022/08/21 13:15:32;;;;;;;;;0.20;0.20;;;;;-147.14;100.00;58812.66;5067702;28;8794;-63
2022/08/21 13:18:02;;;;;;;;;0.00;0.00;;;;;-147.14;100.00;58812.66;5056598;28;8845;-63
2022/08/21 13:20:40;;;;;;;;;0.20;0.20;;;;;-147.14;100.00;58812.66;5071134;28;8813;-63
2022/08/21 13:23:19;;;;;;;;;0.00;0.00;;;;;-147.14;100.00;58812.66;5069209;28;8796;-63
2022/08/21 13:25:44;;;;;;;;;0.00;0.00;;;;;-147.14;100.00;58812.66;5048643;28;8798;-63
2022/08/21 13:28:13;;;;;;;;;0.50;0.00;;;;;-147.14;100.00;58812.66;5068060;28;27719;-63
2022/08/21 13:30:47;;;;;;;;;1.20;0.00;;;;;-147.14;100.00;58812.66;5070956;28;8822;-63
2022/08/21 13:33:14;;;;;;;;;0.00;0.00;;;;;-147.14;100.00;58812.66;5057285;28;8910;-65
2022/08/21 13:35:55;;;;;;;;;0.00;0.00;;;;;-147.14;100.00;58812.66;5072915;28;9418;-63
2022/08/21 13:38:24;;;;;;;;;0.00;0.00;;;;;-147.14;100.00;58812.66;5067986;28;8901;-70
2022/08/21 13:40:52;;;;;;;;;0.00;0.00;;;;;-147.14;100.00;58812.66;5055916;28;8828;-70
2022/08/21 13:43:21;;;;;;;;;0.00;0.00;;;;;-147.14;100.00;58812.66;5054868;28;8843;-72
2022/08/21 13:45:53;;;;;;;;;0.80;0.40;;;;;-147.14;100.00;58812.66;5055169;28;8879;-71
2022/08/21 13:48:20;;;;;;;;;0.00;0.00;;;;;-147.14;100.00;58812.66;5073365;28;8817;-70
2022/08/21 13:50:46;;;;;;;;;0.00;0.00;;;;;-147.14;100.00;58812.66;5056520;28;8841;-71
2022/08/21 13:53:52;;;;;;;;;0.00;0.00;;;;;-147.14;100.00;58812.66;5056113;28;8844;-71
2022/08/21 13:56:22;;;;;;;;;0.00;0.00;;;;;-147.14;100.00;58812.66;5068809;28;8814;-70
2022/08/21 13:58:48;;;;;;;;;0.00;0.00;;;;;-147.14;100.00;58812.66;5063595;28;8815;-71
2022/08/21 14:01:35;;;;;;;;;0.00;0.00;;;;;-147.14;100.00;58812.66;5072755;28;36657;-71
2022/08/21 14:04:07;;;;;;;;;0.00;0.00;;;;;-147.14;100.00;58812.66;5073306;28;8782;-70
2022/08/21 14:06:36;;;;;;;;;0.00;0.00;;;;;-147.14;100.00;58812.66;5071611;28;8746;-71
2022/08/21 14:09:13;;;;;;;;;0.00;0.00;;;;;-147.14;100.00;58812.66;5052260;28;9808;-70
2022/08/21 14:11:39;;;;;;;;;0.00;0.00;;;;;-147.14;100.00;58812.66;5054490;28;8839;-70
2022/08/21 14:14:29;;;;;;;;;0.40;0.40;;;;;-147.14;100.00;58812.66;5073572;28;8758;-71
2022/08/21 14:17:00;;;;;;;;;0.00;0.00;;;;;-147.14;100.00;58812.66;5065072;28;8837;-70
2022/08/21 14:19:34;;;;;;;;;0.00;0.00;;;;;-147.14;100.00;58812.66;5069315;28;8875;-70
2022/08/21 14:22:00;;;;;;;;;0.00;0.00;;;;;-147.14;100.00;58812.66;5056389;28;8829;-70
2022/08/21 14:24:28;;;;;;;;;0.00;0.00;;;;;-147.14;100.00;58812.66;5073518;28;35285;-70
2022/08/21 14:26:58;;;;;;;;;0.00;0.00;;;;;-147.14;100.00;58812.66;5073597;28;8794;-71
2022/08/21 14:29:25;;;;;;;;;0.00;0.00;;;;;-147.14;100.00;58812.66;5073248;28;8852;-71
2022/08/21 14:31:55;;;;;;;;;0.00;0.00;;;;;-147.14;100.00;58812.66;5069125;28;8840;-71
2022/08/21 14:34:21;;;;;;;;;0.00;0.00;;;;;-147.14;100.00;58812.66;5069739;28;8790;-71
2022/08/21 14:36:48;;;;;;;;;0.60;0.00;;;;;-147.14;100.00;58812.66;5055632;28;8794;-71
2022/08/21 14:39:14;;;;;;;;;1.60;0.80;;;;;-147.14;100.00;58812.66;5072520;28;9734;-71
2022/08/21 14:41:39;;;;;;;;;0.00;0.00;;;;;-147.14;100.00;58812.66;5065555;28;8822;-71
2022/08/21 14:44:05;;;;;;;;;0.00;0.00;;;;;-147.14;100.00;58812.66;5066615;28;8798;-70
2022/08/21 14:46:31;;;;;;;;;0.00;0.00;;;;;-147.14;100.00;58812.66;5066950;28;19286;-71
2022/08/21 14:48:58;;;;;;;;;0.00;0.00;;;;;-147.14;100.00;58812.66;5069827;28;8815;-71
2022/08/21 14:51:23;;;;;;;;;0.00;0.00;;;;;-147.14;100.00;58812.66;5076143;28;8825;-71
2022/08/21 14:53:49;;;;;;;;;0.00;0.00;;;;;-147.14;100.00;58812.66;5071379;28;8857;-71
2022/08/21 14:56:15;;;;;;;;;0.00;0.00;;;;;-147.14;100.00;58812.66;5069578;28;17169;-70
2022/08/21 14:58:43;;;;;;;;;0.80;0.00;;;;;-147.14;100.00;58812.66;5072663;28;8746;-71
2022/08/21 15:01:11;;;;;;;;;0.80;0.00;;;;;-147.14;100.00;58812.66;5058449;28;8774;-71
2022/08/21 15:03:37;;;;;;;;;0.00;0.00;;;;;-147.14;100.00;58812.66;5058848;28;8801;-71
2022/08/21 15:06:04;;;;;;;;;0.00;0.00;;;;;-147.14;100.00;58812.66;5075992;28;8823;-71
2022/08/21 15:08:30;;;;;;;;;0.00;0.00;;;;;-147.14;100.00;58812.66;5071818;28;11505;-71
2022/08/21 15:10:55;;;;;;;;;0.00;0.00;;;;;-147.14;100.00;58812.66;5066456;28;8913;-72
2022/08/21 15:13:21;;;;;;;;;0.00;0.00;;;;;-147.14;100.00;58812.66;5054986;28;8825;-71
2022/08/21 15:15:48;;;;;;;;;0.00;0.00;;;;;-147.14;100.00;58812.66;5075228;28;8824;-71
2022/08/21 15:18:15;;;;;;;;;0.00;0.00;;;;;-147.14;100.00;58812.66;5076993;28;9731;-72
2022/08/21 15:20:40;;;;;;;;;0.00;0.00;;;;;-147.14;100.00;58812.66;5065176;28;8913;-71
2022/08/21 15:23:07;;;;;;;;;0.00;0.00;;;;;-147.14;100.00;58812.66;5059043;28;16928;-71
2022/08/21 15:25:33;;;;;;;;;0.00;0.00;;;;;-147.14;100.00;58812.66;5068130;28;8852;-71
2022/08/21 15:27:58;;;;;;;;;0.00;0.00;;;;;-147.14;100.00;58812.66;5064416;28;8794;-70
2022/08/21 15:30:24;;;;;;;;;0.00;0.00;;;;;-147.14;100.00;58812.66;5076513;28;8905;-70
2022/08/21 15:32:49;;;;;;;;;0.00;0.00;;;;;-147.14;100.00;58812.66;5076661;28;9711;-71
2022/08/21 15:35:14;;;;;;;;;0.00;0.00;;;;;-147.14;100.00;58812.66;5067183;28;8827;-70
2022/08/21 15:37:40;;;;;;;;;0.00;0.00;;;;;-147.14;100.00;58812.66;5070029;28;25210;-70
2022/08/21 15:40:07;;;;;;;;;0.00;0.00;;;;;-147.14;100.00;58812.66;5059431;28;8828;-70
2022/08/21 15:42:33;;;;;;;;;0.00;0.00;;;;;-147.14;100.00;58812.66;5074210;28;9691;-70
2022/08/21 15:44:59;;;;;;;;;0.00;0.00;;;;;-147.14;100.00;58812.66;5073772;28;8890;-71
2022/08/21 15:47:34;;;;;;;;;0.00;0.00;;;;;-147.14;100.00;58812.66;5065681;28;8835;-70
2022/08/21 15:49:59;;;;;;;;;0.00;0.00;;;;;-147.14;100.00;58812.66;5067034;28;8813;-71
2022/08/21 15:52:24;;;;;;;;;0.00;0.00;;;;;-147.14;100.00;58812.66;5063661;28;8867;-69
2022/08/21 15:54:50;;;;;;;;;0.75;0.00;;;;;-147.14;100.00;58812.66;5069933;28;17385;-70
2022/08/21 15:57:19;;;;;;;;;0.50;0.00;;;;;-147.14;100.00;58812.66;5069534;28;8868;-70
2022/08/21 15:59:48;;;;;;;;;0.00;0.00;;;;;-147.14;100.00;58812.66;5048454;28;8886;-70
2022/08/21 16:02:18;;;;;;;;;0.00;0.00;;;;;-147.14;100.00;58812.66;5067318;28;8829;-70
2022/08/21 16:04:44;;;;;;;;;0.00;0.00;;;;;-147.14;100.00;58812.66;5066653;28;8797;-71
2022/08/21 16:07:10;;;;;;;;;0.00;0.00;;;;;-147.14;100.00;58812.66;5073783;28;8837;-70
2022/08/21 16:09:35;;;;;;;;;0.00;0.00;;;;;-147.14;100.00;58812.66;5057935;28;8821;-70
2022/08/21 16:12:01;;;;;;;;;0.00;0.00;;;;;-147.14;100.00;58812.66;5073827;28;10137;-70
2022/08/21 16:14:28;;;;;;;;;0.75;0.00;;;;;-147.14;100.00;58812.66;5054589;28;8820;-71
2022/08/21 16:16:54;;;;;;;;;0.00;0.00;;;;;-147.14;100.00;58812.66;5054106;28;8779;-70
2022/08/21 16:19:20;;;;;;;;;0.00;0.00;;;;;-147.14;100.00;58812.66;5042429;28;19510;-70
2022/08/21 16:21:46;;;;;;;;;0.00;0.00;;;;;-147.14;100.00;58812.66;5069496;28;8839;-70
2022/08/21 16:24:11;;;;;;;;;0.00;0.00;;;;;-147.14;100.00;58812.66;5059715;28;36368;-71
2022/08/21 16:26:36;;;;;;;;;0.25;0.00;;;;;-147.14;100.00;58812.66;5065634;28;31694;-70
2022/08/21 16:29:03;;;;;;;;;0.00;0.00;;;;;-147.14;100.00;58812.66;5056095;28;21471;-69
2022/08/21 16:31:30;;;;;;;;;0.00;0.00;;;;;-147.14;100.00;58812.66;5057804;28;9719;-71
2022/08/21 16:33:56;;;;;;;;;0.00;0.00;;;;;-147.14;100.00;58812.66;5044765;28;9785;-70
2022/08/21 16:36:21;;;;;;;;;0.00;0.00;;;;;-147.14;100.00;58812.66;5068767;28;8801;-70
2022/08/21 16:38:47;;;;;;;;;0.00;0.00;;;;;-147.14;100.00;58812.66;5069708;28;9243;-69
2022/08/21 16:41:15;;;;;;;;;0.50;0.00;;;;;-147.14;100.00;58812.66;5065909;28;8819;-68
2022/08/21 16:43:42;;;;;;;;;0.00;0.00;;;;;-147.14;100.00;58812.66;5054821;28;8814;-68
2022/08/21 16:46:10;;;;;;;;;0.00;0.00;;;;;-147.14;100.00;58812.66;5063735;28;8786;-68
2022/08/21 16:48:35;;;;;;;;;0.00;0.00;;;;;-147.14;100.00;58812.66;5050745;28;8822;-68
2022/08/21 16:51:00;;;;;;;;;0.00;0.00;;;;;-147.14;100.00;58812.66;5068278;28;8872;-67
2022/08/21 16:53:26;;;;;;;;;0.00;0.00;;;;;-147.14;100.00;58812.66;5068255;28;8938;-69
2022/08/21 16:55:52;;;;;;;;;0.25;0.25;;;;;-147.14;100.00;58812.66;5063105;28;20192;-69
2022/08/21 16:58:30;;;;;;;;;0.00;0.00;;;;;-147.14;100.00;58812.66;5062090;28;8898;-68
2022/08/21 17:00:57;;;;;;;;;0.00;0.00;;;;;-147.14;100.00;58812.66;5066319;28;10151;-69
2022/08/21 17:03:29;;;;;;;;;0.00;0.00;;;;;-147.14;100.00;58812.66;5055008;28;8828;-69
2022/08/21 17:05:55;;;;;;;;;0.00;0.00;;;;;-147.14;100.00;58812.66;5054906;28;9034;-69
2022/08/21 17:08:20;;;;;;;;;0.00;0.00;;;;;-147.14;100.00;58812.66;5072686;28;8821;-69
2022/08/21 17:10:48;;;;;;;;;0.00;0.00;;;;;-147.14;100.00;58812.66;5062497;28;9045;-69
2022/08/21 17:13:14;;;;;;;;;0.00;0.00;;;;;-147.14;100.00;58812.66;5042223;28;9814;-66
2022/08/21 17:15:40;;;;;;;;;1.00;0.00;;;;;-147.14;100.00;58812.66;5050146;28;8940;-70
2022/08/21 17:18:08;;;;;;;;;1.00;0.00;;;;;-147.14;100.00;58812.66;5069521;28;11481;-71
2022/08/21 17:20:34;;;;;;;;;1.60;0.00;;;;;-147.14;100.00;58812.66;5048124;28;8891;-72
2022/08/21 17:22:59;;;;;;;;;1.00;1.00;;;;;-147.14;100.00;58812.66;5070340;28;30281;-71
2022/08/21 17:25:25;;;;;;;;;0.00;0.00;;;;;-147.14;100.00;58812.66;5070746;28;25202;-72
2022/08/21 17:27:51;;;;;;;;;2.00;0.00;;;;;-147.14;100.00;58812.66;5067491;28;19188;-71
2022/08/21 17:30:17;;;;;;;;;1.40;0.00;;;;;-147.14;100.00;58812.66;5071331;28;8806;-72
2022/08/21 17:32:43;;;;;;;;;0.00;0.00;;;;;-147.14;100.00;58812.66;5053022;28;8832;-71
2022/08/21 17:35:09;;;;;;;;;0.00;0.00;;;;;-147.14;100.00;58812.66;5072063;28;11599;-72
2022/08/21 17:37:35;;;;;;;;;1.00;1.00;;;;;-147.14;100.00;58812.66;5067665;28;9005;-71